Time;durP1;ratioP1;P1;durP2;ratioP2;P2;SDS_P1;SDS_P2;PMS_P1;PMS_P2;Temp;Humidity;BMP_temperature;BMP_pressure;BME280_temperature;BME280_humidity;BME280_pressure;Samples;Min_cycle;Max_cycle;Signal;HPM_P1;HPM_P2
2021/05/21 00:00:06;;;;;;;11.07;8.67;;;;;;;10.10;65.65;99967.66;126219;1104;102943;-82
2021/05/21 00:03:12;;;;;;;9.97;8.67;;;;;;;10.10;65.69;99963.30;126153;1104;103057;-83
2021/05/21 00:05:59;;;;;;;12.07;8.03;;;;;;;10.12;65.77;99963.24;126166;1104;101648;-83
2021/05/21 00:08:47;;;;;;;10.77;9.10;;;;;;;10.13;65.87;99963.19;126194;1104;101919;-81
2021/05/21 00:11:36;;;;;;;9.87;8.50;;;;;;;10.11;66.02;99965.00;126241;1104;103019;-84
2021/05/21 00:14:24;;;;;;;9.60;8.57;;;;;;;10.07;65.94;99960.80;126155;1104;102986;-81
2021/05/21 00:17:12;;;;;;;9.90;8.57;;;;;;;10.05;65.80;99962.58;126112;1100;101672;-81
2021/05/21 00:19:59;;;;;;;;;;;;;;;10.05;66.15;99954.77;126268;1104;102981;-81
2021/05/21 00:22:47;;;;;;;11.00;8.77;;;;;;;10.03;66.12;99960.94;126291;1104;101312;-81
2021/05/21 00:25:35;;;;;;;9.80;8.80;;;;;;;10.01;65.94;99953.17;126168;1104;103100;-82
2021/05/21 00:28:23;;;;;;;9.63;8.33;;;;;;;10.02;66.14;99949.67;126120;1104;102971;-81
2021/05/21 00:31:11;;;;;;;9.33;8.43;;;;;;;10.03;66.32;99951.37;126157;1104;103027;-82
2021/05/21 00:34:00;;;;;;;11.33;9.97;;;;;;;10.05;66.02;99946.95;126178;1104;103079;-81
2021/05/21 00:36:48;;;;;;;12.40;9.30;;;;;;;10.05;66.28;99941.73;126035;1104;102995;-81
2021/05/21 00:39:36;;;;;;;9.43;8.43;;;;;;;10.04;66.56;99940.04;126182;1104;103043;-81
2021/05/21 00:42:23;;;;;;;11.27;10.00;;;;;;;10.04;66.25;99931.38;126085;1104;103272;-81
2021/05/21 00:45:12;;;;;;;11.35;9.55;;;;;;;10.03;66.49;99927.06;126153;1105;102952;-82
2021/05/21 00:47:59;;;;;;;13.10;10.00;;;;;;;10.03;66.24;99930.52;126144;1105;102958;-81
2021/05/21 00:50:49;;;;;;;10.50;9.10;;;;;;;10.02;66.41;99928.83;126168;1104;103071;-81
2021/05/21 00:53:39;;;;;;;13.67;9.07;;;;;;;10.02;66.14;99928.83;126163;1104;102975;-81
2021/05/21 00:56:28;;;;;;;11.57;9.37;;;;;;;10.02;66.38;99923.61;126178;1099;103158;-81
2021/05/21 00:59:16;;;;;;;11.90;9.65;;;;;;;10.03;66.41;99925.31;126143;1104;103039;-81
2021/05/21 01:02:06;;;;;;;11.10;9.23;;;;;;;10.07;66.29;99929.53;126165;1104;101927;-81
2021/05/21 01:04:55;;;;;;;12.27;9.33;;;;;;;10.07;66.33;99928.69;126315;1100;103069;-82
2021/05/21 01:07:43;;;;;;;11.37;9.40;;;;;;;10.08;66.06;99939.05;126075;1099;102766;-81
2021/05/21 01:10:30;;;;;;;;;;;;;;;10.10;66.58;99932.03;126145;1105;100961;-80
2021/05/21 01:13:18;;;;;;;9.33;8.33;;;;;;;10.09;66.46;99925.13;126220;1104;102960;-81
2021/05/21 01:16:06;;;;;;;10.83;8.83;;;;;;;10.09;66.40;99925.13;126200;1104;102928;-81
2021/05/21 01:18:54;;;;;;;9.93;8.93;;;;;;;10.11;66.56;99918.09;126195;1104;103810;-81
2021/05/21 01:21:42;;;;;;;10.60;8.90;;;;;;;10.10;66.32;99921.61;126133;1105;103032;-81
2021/05/21 01:24:30;;;;;;;11.43;9.10;;;;;;;10.09;66.41;99917.30;126260;1104;102968;-80
2021/05/21 01:27:18;;;;;;;11.00;9.47;;;;;;;10.11;66.54;99919.85;126076;1105;102930;-80
2021/05/21 01:30:08;;;;;;;11.03;9.07;;;;;;;10.07;66.33;99926.93;126140;1100;102969;-81
2021/05/21 01:33:07;;;;;;;9.60;8.60;;;;;;;10.05;66.61;99923.50;126157;1099;103129;-81
2021/05/21 01:35:55;;;;;;;11.90;9.43;;;;;;;10.05;66.52;99918.29;126094;1104;103082;-81
2021/05/21 01:39:07;;;;;;;11.17;9.03;;;;;;;10.07;66.82;99921.72;126132;1104;102771;-81
2021/05/21 01:41:54;;;;;;;12.40;9.60;;;;;;;10.03;66.48;99925.31;126187;1104;103022;-81
2021/05/21 01:44:42;;;;;;;11.47;10.10;;;;;;;10.00;66.73;99915.85;126210;1104;102934;-80
2021/05/21 01:47:34;;;;;;;11.13;9.73;;;;;;;10.02;66.76;99921.01;126166;1104;102958;-80
2021/05/21 01:50:22;;;;;;;11.23;9.77;;;;;;;10.01;66.76;99916.70;126030;1105;102973;-80
2021/05/21 01:53:09;;;;;;;12.20;10.20;;;;;;;9.99;66.85;99913.30;126592;1101;102984;-81
2021/05/21 01:55:57;;;;;;;11.43;10.03;;;;;;;9.98;66.99;99911.61;126283;1101;103245;-81
2021/05/21 01:58:45;;;;;;;12.83;10.40;;;;;;;9.96;67.03;99913.42;126359;1102;102940;-81
2021/05/21 02:01:32;;;;;;;19.20;11.07;;;;;;;9.95;67.01;99916.93;126338;1101;102949;-80
2021/05/21 02:04:35;;;;;;;12.17;10.57;;;;;;;9.93;67.06;99916.98;126498;1101;102834;-81
2021/05/21 02:07:23;;;;;;;11.67;10.47;;;;;;;9.92;67.21;99914.44;126616;1101;102930;-81
2021/05/21 02:10:12;;;;;;;12.13;10.90;;;;;;;9.88;67.18;99910.24;126334;1102;103112;-81
2021/05/21 02:13:00;;;;;;;12.33;11.03;;;;;;;9.85;67.27;99915.53;126300;1102;103011;-81
2021/05/21 02:15:48;;;;;;;13.90;11.10;;;;;;;9.78;67.38;99909.69;126293;1101;101465;-82
2021/05/21 02:18:37;;;;;;;14.27;11.00;;;;;;;9.73;67.20;99910.77;126550;1096;103524;-83
2021/05/21 02:21:31;;;;;;;16.00;10.43;;;;;;;9.67;67.46;99906.59;126463;1096;103017;-81
2021/05/21 02:24:20;;;;;;;14.33;11.17;;;;;;;9.62;67.38;99906.75;126349;1096;102773;-81
2021/05/21 02:27:07;;;;;;;;;;;;;;;9.61;67.73;99905.05;126350;1101;103004;-81
2021/05/21 02:29:55;;;;;;;12.43;10.50;;;;;;;9.54;67.80;99898.36;126583;1101;102952;-82
2021/05/21 02:32:43;;;;;;;14.63;11.63;;;;;;;9.51;68.05;99900.19;126231;1095;102927;-83
2021/05/21 02:35:31;;;;;;;15.03;12.80;;;;;;;9.46;68.24;99905.56;126584;1101;102933;-83
2021/05/21 02:38:20;;;;;;;14.45;11.95;;;;;;;9.45;68.12;99893.45;126555;1095;102874;-81
2021/05/21 02:41:08;;;;;;;12.80;11.07;;;;;;;9.42;68.50;99901.36;126582;1101;102956;-81
2021/05/21 02:43:57;;;;;;;15.23;12.00;;;;;;;9.38;68.80;99895.41;126432;1101;102923;-82
2021/05/21 02:46:44;;;;;;;12.20;10.90;;;;;;;9.34;68.82;99899.02;126503;1101;103091;-81
2021/05/21 02:49:35;;;;;;;12.37;10.70;;;;;;;9.32;68.60;99899.95;126288;1101;102257;-81
2021/05/21 02:52:23;;;;;;;13.90;11.87;;;;;;;9.31;68.88;99900.84;126506;1101;103066;-81
2021/05/21 02:55:14;;;;;;;12.60;11.30;;;;;;;9.34;69.02;99899.02;126599;1101;103361;-81
2021/05/21 02:58:03;;;;;;;14.03;11.70;;;;;;;9.39;69.01;99896.27;126524;1101;103102;-81
2021/05/21 03:00:51;;;;;;;11.57;10.10;;;;;;;9.40;69.15;99890.16;126221;1096;103218;-83
2021/05/21 03:03:39;;;;;;;12.97;10.97;;;;;;;9.41;68.62;99894.45;126613;1096;103062;-82
2021/05/21 03:06:27;;;;;;;11.73;10.17;;;;;;;9.43;68.63;99897.00;126320;1102;103065;-83
2021/05/21 03:09:16;;;;;;;12.60;10.37;;;;;;;9.45;68.97;99900.41;126541;1101;102952;-83
2021/05/21 03:12:04;;;;;;;11.70;9.53;;;;;;;9.46;68.82;99900.35;126591;1101;103046;-81
2021/05/21 03:14:53;;;;;;;13.40;11.17;;;;;;;9.50;68.90;99899.34;126566;1101;103057;-83
2021/05/21 03:17:41;;;;;;;11.30;10.10;;;;;;;9.54;68.58;99906.17;126590;1096;102981;-83
2021/05/21 03:20:29;;;;;;;12.20;10.57;;;;;;;9.57;68.80;99900.01;126571;1097;102985;-81
2021/05/21 03:23:17;;;;;;;;;;;;;;;9.61;68.67;99899.00;126588;1101;102923;-81
2021/05/21 03:26:05;;;;;;;;;;;;;;;9.64;68.90;99897.13;126617;1101;102959;-81
2021/05/21 03:28:53;;;;;;;12.93;10.90;;;;;;;9.68;68.38;99897.88;126548;1101;103300;-82
2021/05/21 03:31:42;;;;;;;11.03;9.87;;;;;;;9.68;68.85;99892.67;126546;1101;101913;-81
2021/05/21 03:34:30;;;;;;;12.43;10.27;;;;;;;9.69;68.75;99897.85;126619;1101;100921;-81
2021/05/21 03:37:17;;;;;;;13.07;11.50;;;;;;;9.73;68.73;99902.95;126592;1101;102975;-81
2021/05/21 03:40:07;;;;;;;14.23;11.97;;;;;;;9.78;68.64;99906.23;126548;1101;103009;-81
2021/05/21 03:42:59;;;;;;;14.40;12.17;;;;;;;9.84;68.67;99898.20;126565;1101;104952;-81
2021/05/21 03:45:47;;;;;;;13.10;11.10;;;;;;;9.87;68.64;99905.91;126342;1101;103055;-81
2021/05/21 03:48:35;;;;;;;17.50;12.40;;;;;;;9.93;68.56;99890.08;126629;1096;102774;-81
2021/05/21 03:51:23;;;;;;;14.40;11.97;;;;;;;10.00;68.54;99894.16;126509;1096;103009;-81
2021/05/21 03:54:11;;;;;;;13.60;11.43;;;;;;;10.07;68.65;99893.06;126638;1101;103074;-81
2021/05/21 03:56:59;;;;;;;14.43;11.83;;;;;;;10.18;68.49;99892.66;126516;1101;102933;-80
2021/05/21 03:59:48;;;;;;;13.15;11.75;;;;;;;10.25;68.25;99894.19;126579;1101;103066;-82
2021/05/21 04:02:36;;;;;;;16.20;13.07;;;;;;;10.35;68.34;99886.86;126619;1101;103011;-81
2021/05/21 04:05:26;;;;;;;16.30;13.10;;;;;;;10.43;68.36;99897.88;126358;1101;102233;-80
2021/05/21 04:08:14;;;;;;;13.50;11.10;;;;;;;10.48;67.85;99885.51;126447;1101;102930;-80
2021/05/21 04:11:02;;;;;;;13.23;11.07;;;;;;;10.52;67.78;99892.30;126565;1101;103096;-81
2021/05/21 04:13:50;;;;;;;12.57;11.20;;;;;;;10.53;67.67;99884.42;126340;1102;102957;-80
2021/05/21 04:16:37;;;;;;;14.30;11.15;;;;;;;10.62;67.59;99892.82;126507;1096;102981;-81
2021/05/21 04:19:28;;;;;;;16.57;11.83;;;;;;;10.65;67.48;99888.33;126575;1101;103075;-81
2021/05/21 04:22:16;;;;;;;14.83;11.00;;;;;;;10.68;67.25;99893.42;126588;1101;102961;-80
2021/05/21 04:25:04;;;;;;;14.33;10.93;;;;;;;10.74;67.20;99901.00;126415;1101;102961;-80
2021/05/21 04:27:52;;;;;;;13.30;10.63;;;;;;;10.79;67.21;99896.48;126638;1096;102996;-80
2021/05/21 04:30:40;;;;;;;13.10;11.20;;;;;;;10.86;67.04;99907.52;126523;1101;103023;-80
2021/05/21 04:33:28;;;;;;;15.33;12.07;;;;;;;10.96;66.84;99897.59;126575;1096;103030;-80
2021/05/21 04:36:17;;;;;;;12.93;11.33;;;;;;;11.13;66.50;99890.80;126547;1101;102975;-80
2021/05/21 04:39:05;;;;;;;12.40;10.73;;;;;;;11.28;66.22;99894.52;126533;1095;102937;-80
2021/05/21 04:41:54;;;;;;;12.00;9.83;;;;;;;11.39;65.99;99891.48;126621;1101;103011;-81
2021/05/21 04:44:41;;;;;;;12.87;10.10;;;;;;;11.52;65.67;99894.45;126383;1096;102952;-80
2021/05/21 04:47:29;;;;;;;;;;;;;;;11.69;65.45;99905.05;126569;1101;103030;-81
2021/05/21 04:50:17;;;;;;;12.90;10.25;;;;;;;11.86;65.00;99891.30;126567;1095;102960;-81
2021/05/21 04:53:05;;;;;;;12.93;10.47;;;;;;;11.98;64.84;99893.36;126334;1101;102949;-81
2021/05/21 04:55:53;;;;;;;15.87;11.80;;;;;;;12.13;64.33;99889.23;126408;1101;103008;-81
2021/05/21 04:58:40;;;;;;;14.07;9.90;;;;;;;12.25;63.88;99888.70;126524;1096;102939;-80
2021/05/21 05:01:28;;;;;;;12.37;10.27;;;;;;;12.39;63.75;99899.40;126563;1096;102959;-80
2021/05/21 05:04:16;;;;;;;13.07;10.30;;;;;;;12.45;63.32;99893.88;126268;1101;103509;-80
2021/05/21 05:07:04;;;;;;;14.57;10.00;;;;;;;12.51;63.12;99900.59;126567;1096;102972;-80
2021/05/21 05:09:52;;;;;;;13.00;9.93;;;;;;;12.57;62.87;99895.09;126516;1101;102990;-80
2021/05/21 05:12:39;;;;;;;;;;;;;;;12.70;62.69;99889.20;126559;1101;102959;-80
2021/05/21 05:15:27;;;;;;;13.40;9.23;;;;;;;12.89;62.39;99894.42;126548;1096;101148;-80
2021/05/21 05:18:15;;;;;;;11.43;9.97;;;;;;;13.10;61.97;99895.17;126470;1101;102341;-80
2021/05/21 05:21:06;;;;;;;12.30;9.23;;;;;;;13.35;61.51;99892.27;126306;1101;103075;-79
2021/05/21 05:23:56;;;;;;;10.57;8.80;;;;;;;13.60;61.04;99894.50;126490;1101;103496;-80
2021/05/21 05:26:49;;;;;;;10.63;8.83;;;;;;;13.98;60.88;99891.70;126304;1101;102907;-80
2021/05/21 05:29:37;;;;;;;13.60;8.13;;;;;;;14.93;60.01;99890.97;126448;1096;102925;-80
2021/05/21 05:32:25;;;;;;;9.20;7.80;;;;;;;16.22;57.71;99886.97;126200;1101;103380;-80
2021/05/21 05:35:15;;;;;;;11.37;8.07;;;;;;;17.33;56.04;99879.05;126446;1101;103152;-80
2021/05/21 05:38:04;;;;;;;9.53;7.77;;;;;;;18.49;53.45;99871.99;126580;1101;102936;-80
2021/05/21 05:40:52;;;;;;;10.57;7.43;;;;;;;19.39;52.30;99875.16;126606;1097;103027;-80
2021/05/21 05:43:41;;;;;;;7.67;6.87;;;;;;;21.52;49.79;99870.72;126572;1101;102980;-80
2021/05/21 05:46:28;;;;;;;12.60;6.53;;;;;;;23.37;46.18;99864.23;126253;1101;103104;-80
2021/05/21 05:49:19;;;;;;;8.63;5.80;;;;;;;24.80;44.39;99849.83;126526;1101;102974;-80
2021/05/21 05:52:06;;;;;;;6.63;5.00;;;;;;;25.79;41.82;99850.59;126605;1096;103003;-80
2021/05/21 05:54:55;;;;;;;7.17;5.83;;;;;;;26.45;39.59;99855.36;126602;1101;103083;-81
2021/05/21 05:57:42;;;;;;;8.23;5.20;;;;;;;26.40;38.40;99846.15;126566;1101;102931;-81
2021/05/21 06:00:30;;;;;;;8.33;5.20;;;;;;;27.14;38.30;99839.19;126580;1101;102933;-81
2021/05/21 06:03:18;;;;;;;6.93;4.50;;;;;;;28.26;35.96;99831.25;126540;1101;102981;-81
2021/05/21 06:06:06;;;;;;;5.57;4.30;;;;;;;29.39;34.55;99828.92;126571;1101;103023;-81
2021/05/21 06:09:14;;;;;;;5.67;4.47;;;;;;;30.18;33.59;99824.02;126361;1102;103051;-81
2021/05/21 06:12:02;;;;;;;7.97;4.50;;;;;;;30.90;32.18;99824.94;126339;1101;100981;-81
2021/05/21 06:14:52;;;;;;;7.17;4.50;;;;;;;31.35;30.75;99827.46;126521;1101;103367;-81
2021/05/21 06:17:41;;;;;;;5.93;4.20;;;;;;;31.51;30.03;99821.80;126290;1101;102943;-81
2021/05/21 06:20:31;;;;;;;6.80;4.43;;;;;;;31.16;29.18;99818.97;126546;1101;102974;-80
2021/05/21 06:23:19;;;;;;;4.40;3.70;;;;;;;31.02;29.08;99824.41;126383;1101;102953;-81
2021/05/21 06:29:04;;;;;;;8.38;4.95;;;;;;;29.85;28.90;99824.34;126456;1101;102947;-77
2021/05/21 06:31:52;;;;;;;7.37;4.03;;;;;;;29.18;28.54;99821.54;126176;1101;103264;-77
2021/05/21 06:34:40;;;;;;;6.03;4.00;;;;;;;28.59;27.88;99815.85;126444;1101;102952;-78
2021/05/21 06:37:37;;;;;;;7.33;3.80;;;;;;;27.37;29.36;99821.45;126200;1101;103199;-78
2021/05/21 06:40:29;;;;;;;5.60;3.90;;;;;;;26.27;29.64;99819.81;126430;1101;103055;-79
2021/05/21 06:43:19;;;;;;;5.50;3.80;;;;;;;26.76;30.54;99814.67;126252;1101;102948;-79
2021/05/21 06:46:07;;;;;;;4.40;3.27;;;;;;;27.47;30.14;99810.56;126377;1101;103091;-76
2021/05/21 06:48:55;;;;;;;4.67;3.20;;;;;;;27.73;29.13;99816.61;126417;1097;102946;-77
2021/05/21 06:51:43;;;;;;;4.90;3.00;;;;;;;27.31;29.24;99814.94;126482;1101;102933;-78
2021/05/21 06:54:30;;;;;;;6.50;3.43;;;;;;;27.17;29.58;99812.09;126242;1101;103069;-78
2021/05/21 06:57:19;;;;;;;7.47;4.00;;;;;;;26.65;29.35;99801.59;126411;1101;103468;-78
2021/05/21 07:00:09;;;;;;;8.60;3.57;;;;;;;26.27;30.12;99798.43;126418;1101;102939;-78
2021/05/21 07:02:57;;;;;;;6.00;3.40;;;;;;;27.08;30.06;99804.03;126429;1095;103077;-77
2021/05/21 07:05:46;;;;;;;5.90;3.30;;;;;;;27.61;29.16;99788.45;126434;1101;102982;-77
2021/05/21 07:08:34;;;;;;;4.47;3.17;;;;;;;27.72;28.68;99798.02;126449;1101;102995;-78
2021/05/21 07:11:22;;;;;;;6.27;3.47;;;;;;;28.76;28.29;99790.59;126406;1101;102943;-78
2021/05/21 07:14:10;;;;;;;3.70;2.73;;;;;;;30.36;27.05;99784.11;126418;1101;103232;-79
2021/05/21 07:16:58;;;;;;;3.37;2.70;;;;;;;31.25;26.29;99790.92;126442;1097;103525;-78
2021/05/21 07:19:46;;;;;;;4.73;2.43;;;;;;;31.63;24.14;99793.29;126391;1101;102940;-78
2021/05/21 07:22:34;;;;;;;4.33;2.70;;;;;;;31.23;24.07;99786.72;126151;1101;102942;-78
2021/05/21 07:25:22;;;;;;;5.23;2.63;;;;;;;31.99;24.26;99784.22;126417;1101;102949;-78
2021/05/21 07:28:10;;;;;;;3.50;2.20;;;;;;;32.83;23.95;99773.98;126380;1096;103383;-79
2021/05/21 07:30:57;;;;;;;4.17;2.30;;;;;;;33.62;22.93;99768.65;126443;1101;103117;-79
2021/05/21 07:33:45;;;;;;;3.70;1.70;;;;;;;34.35;22.07;99763.08;126379;1101;102924;-79
2021/05/21 07:36:35;;;;;;;2.10;1.50;;;;;;;34.62;21.01;99768.34;126439;1101;103008;-79
2021/05/21 07:39:23;;;;;;;4.13;1.77;;;;;;;34.31;19.98;99767.23;126419;1101;103092;-79
2021/05/21 07:42:10;;;;;;;3.60;1.40;;;;;;;33.77;19.38;99759.47;126398;1101;102924;-79
2021/05/21 07:44:59;;;;;;;2.47;1.20;;;;;;;33.92;19.95;99752.78;126442;1101;103087;-79
2021/05/21 07:47:48;;;;;;;3.00;1.35;;;;;;;33.69;19.62;99751.56;126453;1097;102933;-79
2021/05/21 07:50:39;;;;;;;2.87;1.60;;;;;;;33.21;20.34;99751.78;126373;1101;102745;-79
2021/05/21 07:53:30;;;;;;;2.13;1.70;;;;;;;33.37;19.98;99748.69;126369;1095;102998;-79
2021/05/21 07:56:19;;;;;;;2.43;1.23;;;;;;;33.15;20.19;99752.63;126293;1097;102991;-78
2021/05/21 07:59:09;;;;;;;1.73;1.20;;;;;;;33.55;20.17;99735.36;126445;1097;103076;-80
2021/05/21 08:01:57;;;;;;;2.57;1.20;;;;;;;33.66;19.32;99736.60;126461;1096;102953;-79
2021/05/21 08:04:45;;;;;;;3.27;1.13;;;;;;;33.12;19.71;99731.42;126469;1101;102955;-79
2021/05/21 08:07:33;;;;;;;1.80;1.20;;;;;;;32.82;17.93;99734.52;126419;1101;103199;-79
2021/05/21 08:10:21;;;;;;;4.73;1.30;;;;;;;32.69;17.87;99734.48;126097;1101;103096;-79
2021/05/21 08:13:08;;;;;;;3.33;1.40;;;;;;;32.96;18.61;99735.36;126429;1096;103026;-79
2021/05/21 08:15:56;;;;;;;3.67;1.20;;;;;;;33.19;17.76;99743.05;126448;1101;102977;-79
2021/05/21 08:18:44;;;;;;;2.60;1.00;;;;;;;32.64;17.85;99726.14;126398;1101;103039;-79
2021/05/21 08:21:34;;;;;;;1.93;0.97;;;;;;;32.64;17.68;99732.38;126456;1101;102931;-78
2021/05/21 08:24:22;;;;;;;1.97;0.90;;;;;;;32.50;18.46;99713.64;126436;1101;103019;-78
2021/05/21 08:27:10;;;;;;;2.60;1.40;;;;;;;31.64;17.82;99724.03;126431;1101;103033;-78
2021/05/21 08:29:58;;;;;;;2.63;1.23;;;;;;;29.54;18.94;99726.89;126468;1101;103032;-78
2021/05/21 08:32:49;;;;;;;3.07;1.27;;;;;;;28.70;19.29;99729.56;126199;1102;102957;-77
2021/05/21 08:35:37;;;;;;;4.10;2.73;;;;;;;27.98;20.38;99723.56;126351;1101;102969;-78
2021/05/21 08:38:24;;;;;;;1.37;1.27;;;;;;;27.95;20.63;99724.75;126299;1101;103238;-78
2021/05/21 08:41:16;;;;;;;2.67;1.13;;;;;;;28.01;20.59;99723.24;126444;1097;103062;-78
2021/05/21 08:44:05;;;;;;;3.40;2.00;;;;;;;27.32;20.84;99719.38;126417;1101;103091;-77
2021/05/21 08:46:53;;;;;;;6.03;1.60;;;;;;;26.54;20.84;99724.33;126356;1095;103013;-78
2021/05/21 08:49:43;;;;;;;3.23;2.20;;;;;;;25.78;21.09;99723.38;126427;1101;102949;-78
2021/05/21 08:52:33;;;;;;;4.33;2.87;;;;;;;24.94;21.84;99729.23;126379;1096;102892;-79
2021/05/21 08:55:21;;;;;;;2.83;1.63;;;;;;;24.24;22.91;99730.86;126211;1101;103023;-79
2021/05/21 08:58:13;;;;;;;3.63;1.93;;;;;;;23.58;23.50;99722.18;126449;1101;104213;-78
2021/05/21 09:01:03;;;;;;;7.15;1.60;;;;;;;22.75;24.01;99734.26;126187;1101;103121;-78
2021/05/21 09:03:59;;;;;;;3.33;1.93;;;;;;;21.96;25.33;99720.94;126423;1101;102978;-78
2021/05/21 09:06:46;;;;;;;4.73;1.53;;;;;;;21.45;25.63;99726.29;126420;1101;103075;-78
2021/05/21 09:09:44;;;;;;;4.00;1.43;;;;;;;21.18;26.08;99721.47;126389;1101;103357;-79
2021/05/21 09:12:46;;;;;;;5.10;2.20;;;;;;;20.87;26.89;99724.05;126442;1096;103037;-79
2021/05/21 09:15:34;;;;;;;3.13;1.83;;;;;;;21.43;27.36;99720.27;126395;1101;103078;-78
2021/05/21 09:18:22;;;;;;;3.70;1.80;;;;;;;21.82;26.86;99721.30;126418;1101;102943;-78
2021/05/21 09:21:15;;;;;;;4.30;1.53;;;;;;;21.98;25.98;99713.67;126156;1101;103043;-78
2021/05/21 09:24:04;;;;;;;6.60;4.57;;;;;;;21.75;26.50;99714.86;126185;1101;103072;-79
2021/05/21 09:26:53;;;;;;;5.57;1.40;;;;;;;21.52;26.62;99717.66;126418;1101;102966;-79
2021/05/21 09:29:46;;;;;;;2.40;1.13;;;;;;;21.45;26.76;99713.86;126442;1101;102940;-79
2021/05/21 09:32:35;;;;;;;4.63;3.00;;;;;;;21.53;27.04;99713.19;126463;1101;102979;-79
2021/05/21 09:35:24;;;;;;;3.20;1.40;;;;;;;21.71;26.89;99701.83;126347;1101;102923;-78
2021/05/21 09:38:14;;;;;;;2.40;1.30;;;;;;;22.45;26.24;99701.52;126392;1096;103042;-79
2021/05/21 09:41:07;;;;;;;4.20;2.27;;;;;;;23.37;26.10;99688.59;126447;1101;103340;-79
2021/05/21 09:43:59;;;;;;;3.53;1.10;;;;;;;24.21;24.90;99677.01;126439;1096;102931;-80
2021/05/21 09:46:49;;;;;;;3.70;1.35;;;;;;;24.65;25.38;99675.33;126402;1101;102939;-78
2021/05/21 09:49:40;;;;;;;4.07;2.70;;;;;;;25.32;24.17;99678.38;126390;1101;103450;-79
2021/05/21 09:52:29;;;;;;;1.73;1.40;;;;;;;25.77;23.32;99681.63;126424;1096;102960;-79
2021/05/21 09:55:17;;;;;;;5.50;2.37;;;;;;;25.56;23.80;99671.33;126147;1101;102941;-77
2021/05/21 09:58:25;;;;;;;6.00;2.17;;;;;;;25.47;22.94;99676.77;126420;1101;102927;-77
2021/05/21 10:01:24;;;;;;;2.20;0.80;;;;;;;25.33;22.97;99674.70;126411;1096;103006;-80
2021/05/21 10:04:11;;;;;;;3.07;1.53;;;;;;;25.26;23.19;99664.64;126457;1101;102888;-80
2021/05/21 10:06:59;;;;;;;6.53;1.87;;;;;;;25.21;23.00;99668.78;126451;1101;103034;-80
2021/05/21 10:09:47;;;;;;;3.75;2.15;;;;;;;24.60;23.14;99669.63;126480;1101;103021;-77
2021/05/21 10:12:37;;;;;;;4.23;1.83;;;;;;;24.32;23.52;99656.34;126492;1101;103001;-80
2021/05/21 10:15:25;;;;;;;1.53;1.20;;;;;;;24.63;23.54;99656.81;126569;1101;102934;-79
2021/05/21 10:18:15;;;;;;;5.47;1.47;;;;;;;24.62;22.51;99652.48;126522;1101;101675;-79
2021/05/21 10:21:05;;;;;;;3.63;1.17;;;;;;;24.42;22.01;99664.30;126599;1101;103024;-79
2021/05/21 10:23:59;;;;;;;4.67;2.53;;;;;;;24.35;23.21;99649.88;126532;1101;103004;-80
2021/05/21 10:26:53;;;;;;;2.00;1.43;;;;;;;24.77;23.20;99642.07;126567;1101;101224;-80
2021/05/21 10:29:50;;;;;;;3.17;1.20;;;;;;;25.12;22.74;99651.86;126302;1101;102937;-79
2021/05/21 10:32:38;;;;;;;2.30;1.20;;;;;;;24.84;21.74;99643.14;126424;1101;103025;-79
2021/05/21 10:35:26;;;;;;;2.70;1.40;;;;;;;24.38;22.04;99628.25;126444;1101;103032;-81
2021/05/21 10:38:35;;;;;;;2.30;1.03;;;;;;;23.76;22.00;99630.73;126506;1101;102927;-81
2021/05/21 10:41:57;;;;;;;3.13;1.10;;;;;;;23.02;22.71;99636.03;126500;1101;102497;-81
2021/05/21 10:44:49;;;;;;;2.87;1.50;;;;;;;22.73;23.71;99625.41;126458;1101;101829;-81
2021/05/21 10:47:40;;;;;;;4.60;2.80;;;;;;;22.88;24.29;99647.95;126434;1101;103182;-81
2021/05/21 10:50:38;;;;;;;2.00;1.30;;;;;;;22.82;24.28;99618.45;126471;1101;103020;-81
2021/05/21 10:53:26;;;;;;;2.10;1.27;;;;;;;22.56;24.60;99615.48;126454;1101;102981;-81
2021/05/21 10:56:16;;;;;;;2.40;1.20;;;;;;;22.53;24.90;99610.45;126515;1101;102990;-81
2021/05/21 10:59:04;;;;;;;3.20;1.40;;;;;;;22.52;24.81;99612.28;126486;1101;101496;-81
2021/05/21 11:01:51;;;;;;;4.70;1.70;;;;;;;22.25;24.61;99599.68;126445;1101;103005;-81
2021/05/21 11:04:55;;;;;;;2.80;1.50;;;;;;;22.39;24.86;99582.48;126476;1101;102925;-81
2021/05/21 11:07:45;;;;;;;1.90;1.60;;;;;;;22.23;25.02;99575.08;126240;1101;102979;-81
2021/05/21 11:10:45;;;;;;;3.43;2.00;;;;;;;21.90;25.36;99589.58;126530;1101;102943;-81
2021/05/21 11:13:34;;;;;;;2.40;1.57;;;;;;;21.57;25.25;99582.80;126562;1101;103098;-81
2021/05/21 11:16:33;;;;;;;5.03;2.40;;;;;;;21.34;25.46;99574.19;126460;1101;103109;-81
2021/05/21 11:19:24;;;;;;;4.67;1.60;;;;;;;21.26;25.88;99589.09;126535;1101;101292;-81
2021/05/21 11:22:24;;;;;;;2.65;1.35;;;;;;;21.19;25.76;99574.67;126491;1101;102923;-81
2021/05/21 11:25:16;;;;;;;2.77;1.40;;;;;;;21.10;25.84;99579.78;126596;1101;102969;-81
2021/05/21 11:28:04;;;;;;;2.30;1.43;;;;;;;21.16;26.70;99569.61;126414;1101;103237;-81
2021/05/21 11:30:53;;;;;;;4.40;1.53;;;;;;;21.03;26.60;99562.73;126471;1101;104281;-81
2021/05/21 11:33:44;;;;;;;7.47;3.20;;;;;;;21.09;27.13;99553.41;126422;1101;103002;-80
2021/05/21 11:36:34;;;;;;;3.53;1.70;;;;;;;21.14;27.01;99567.09;126499;1101;103138;-80
2021/05/21 11:39:28;;;;;;;3.47;1.70;;;;;;;20.75;26.99;99553.64;126475;1101;101718;-81
2021/05/21 11:42:17;;;;;;;5.07;1.43;;;;;;;20.41;27.61;99555.66;126441;1101;102974;-81
2021/05/21 11:45:07;;;;;;;1.57;1.40;;;;;;;20.17;27.83;99552.38;126458;1101;102944;-81
2021/05/21 11:47:55;;;;;;;2.40;1.33;;;;;;;19.99;28.08;99535.37;126475;1101;103091;-81
2021/05/21 11:50:43;;;;;;;1.10;1.00;;;;;;;19.67;27.89;99548.57;126386;1101;102995;-82
2021/05/21 11:53:31;;;;;;;5.30;3.00;;;;;;;19.68;28.37;99551.09;126395;1096;102922;-81
2021/05/21 11:56:32;;;;;;;2.50;1.20;;;;;;;19.88;28.48;99558.25;126469;1101;102975;-81
2021/05/21 11:59:23;;;;;;;1.53;1.20;;;;;;;20.03;27.54;99550.02;126269;1097;102952;-83
2021/05/21 12:02:14;;;;;;;6.67;1.10;;;;;;;19.79;27.91;99537.00;126507;1101;103015;-78
2021/05/21 12:05:07;;;;;;;3.30;1.20;;;;;;;19.67;28.23;99532.70;126216;1101;102931;-80
2021/05/21 12:07:57;;;;;;;2.43;1.20;;;;;;;19.81;28.60;99512.09;126485;1101;102980;-79
2021/05/21 12:10:58;;;;;;;1.45;1.00;;;;;;;20.06;28.12;99513.55;126314;1101;102952;-79
2021/05/21 12:13:46;;;;;;;2.03;1.10;;;;;;;20.12;28.64;99509.57;126406;1101;102980;-79
2021/05/21 12:16:35;;;;;;;;;;;;;;;20.20;28.22;99515.05;126459;1101;102928;-79
2021/05/21 12:19:27;;;;;;;2.70;1.20;;;;;;;19.99;28.25;99503.61;126492;1101;102965;-79
2021/05/21 12:22:15;;;;;;;7.73;1.30;;;;;;;19.88;28.71;99499.19;126438;1101;102942;-79
2021/05/21 12:25:19;;;;;;;4.00;1.33;;;;;;;19.67;28.52;99512.38;126189;1101;102794;-79
2021/05/21 12:28:07;;;;;;;2.37;1.30;;;;;;;19.37;28.86;99501.58;126255;1101;103378;-79
2021/05/21 12:31:01;;;;;;;1.27;1.17;;;;;;;19.17;29.39;99506.66;126198;1101;105290;-80
2021/05/21 12:33:51;;;;;;;2.93;1.33;;;;;;;19.13;29.81;99496.46;126189;1097;102948;-80
2021/05/21 12:36:39;;;;;;;1.43;1.30;;;;;;;19.28;29.67;99484.67;126451;1101;101184;-79
2021/05/21 12:39:41;;;;;;;2.07;1.37;;;;;;;19.40;29.12;99493.43;126189;1101;103355;-79
2021/05/21 12:42:29;;;;;;;6.83;1.27;;;;;;;19.41;29.67;99495.95;126114;1097;102929;-79
2021/05/21 12:45:19;;;;;;;3.80;1.53;;;;;;;19.34;29.55;99489.45;126417;1101;102964;-79
2021/05/21 12:48:07;;;;;;;1.20;1.10;;;;;;;19.16;29.53;99491.77;126473;1101;103005;-80
2021/05/21 12:50:55;;;;;;;1.87;1.30;;;;;;;18.96;30.02;99480.13;126474;1096;103120;-79
2021/05/21 12:53:44;;;;;;;1.77;1.20;;;;;;;18.91;30.19;99481.47;126426;1101;102895;-80
2021/05/21 12:56:37;;;;;;;4.60;1.40;;;;;;;18.92;30.38;99467.29;126530;1101;103088;-79
2021/05/21 12:59:46;;;;;;;1.80;1.37;;;;;;;19.04;29.93;99471.61;126468;1101;102956;-79